sensor_id;sensor_type;location;lat;lon;timestamp;temperature;humidity
3298;DHT22;1661;53.572;10.174;2023-05-07T00:01:02;10.30;85.00
3298;DHT22;1661;53.572;10.174;2023-05-07T00:03:31;10.30;84.80
3298;DHT22;1661;53.572;10.174;2023-05-07T00:05:58;10.40;84.40
3298;DHT22;1661;53.572;10.174;2023-05-07T00:08:25;10.30;84.30
3298;DHT22;1661;53.572;10.174;2023-05-07T00:10:53;10.30;84.30
3298;DHT22;1661;53.572;10.174;2023-05-07T00:13:20;10.40;84.50
3298;DHT22;1661;53.572;10.174;2023-05-07T00:15:47;10.40;84.30
3298;DHT22;1661;53.572;10.174;2023-05-07T00:18:13;10.30;84.20
3298;DHT22;1661;53.572;10.174;2023-05-07T00:20:41;10.30;84.50
3298;DHT22;1661;53.572;10.174;2023-05-07T00:23:11;10.20;84.90
3298;DHT22;1661;53.572;10.174;2023-05-07T00:25:37;10.00;85.60
3298;DHT22;1661;53.572;10.174;2023-05-07T00:28:11;10.00;85.70
3298;DHT22;1661;53.572;10.174;2023-05-07T00:30:43;10.00;85.30
3298;DHT22;1661;53.572;10.174;2023-05-07T00:33:10;10.10;85.10
3298;DHT22;1661;53.572;10.174;2023-05-07T00:35:36;10.10;84.90
3298;DHT22;1661;53.572;10.174;2023-05-07T00:38:03;10.10;85.00
3298;DHT22;1661;53.572;10.174;2023-05-07T00:40:30;10.10;85.00
3298;DHT22;1661;53.572;10.174;2023-05-07T00:42:57;10.10;85.30
3298;DHT22;1661;53.572;10.174;2023-05-07T00:45:27;10.00;85.40
3298;DHT22;1661;53.572;10.174;2023-05-07T00:47:59;10.10;85.30
3298;DHT22;1661;53.572;10.174;2023-05-07T00:50:27;10.10;85.50
3298;DHT22;1661;53.572;10.174;2023-05-07T00:52:55;10.00;85.70
3298;DHT22;1661;53.572;10.174;2023-05-07T00:55:25;10.00;85.70
3298;DHT22;1661;53.572;10.174;2023-05-07T00:57:52;10.10;85.70
3298;DHT22;1661;53.572;10.174;2023-05-07T01:00:19;10.10;85.50
3298;DHT22;1661;53.572;10.174;2023-05-07T01:02:50;10.20;85.30
3298;DHT22;1661;53.572;10.174;2023-05-07T01:05:22;10.20;85.30
3298;DHT22;1661;53.572;10.174;2023-05-07T01:07:50;10.20;84.90
3298;DHT22;1661;53.572;10.174;2023-05-07T01:10:18;10.20;85.10
3298;DHT22;1661;53.572;10.174;2023-05-07T01:12:46;10.20;85.20
3298;DHT22;1661;53.572;10.174;2023-05-07T01:15:18;10.20;85.10
3298;DHT22;1661;53.572;10.174;2023-05-07T01:17:45;10.10;85.70
3298;DHT22;1661;53.572;10.174;2023-05-07T01:20:13;9.90;86.10
3298;DHT22;1661;53.572;10.174;2023-05-07T01:22:43;9.90;86.20
3298;DHT22;1661;53.572;10.174;2023-05-07T01:25:12;10.00;86.10
3298;DHT22;1661;53.572;10.174;2023-05-07T01:27:41;10.00;86.10
3298;DHT22;1661;53.572;10.174;2023-05-07T01:30:08;9.90;86.10
3298;DHT22;1661;53.572;10.174;2023-05-07T01:32:39;10.00;85.90
3298;DHT22;1661;53.572;10.174;2023-05-07T01:35:12;10.10;85.80
3298;DHT22;1661;53.572;10.174;2023-05-07T01:37:42;10.10;85.70
3298;DHT22;1661;53.572;10.174;2023-05-07T01:40:09;10.20;85.50
3298;DHT22;1661;53.572;10.174;2023-05-07T01:42:36;10.20;85.30
3298;DHT22;1661;53.572;10.174;2023-05-07T01:45:04;10.10;85.10
3298;DHT22;1661;53.572;10.174;2023-05-07T01:47:31;10.10;85.30
3298;DHT22;1661;53.572;10.174;2023-05-07T01:49:59;10.10;85.10
3298;DHT22;1661;53.572;10.174;2023-05-07T01:52:27;10.00;85.10
3298;DHT22;1661;53.572;10.174;2023-05-07T01:54:55;10.00;85.40
3298;DHT22;1661;53.572;10.174;2023-05-07T01:57:22;10.00;85.40
3298;DHT22;1661;53.572;10.174;2023-05-07T01:59:49;10.10;85.40
3298;DHT22;1661;53.572;10.174;2023-05-07T02:02:16;10.10;85.40
3298;DHT22;1661;53.572;10.174;2023-05-07T02:04:42;10.10;85.40
3298;DHT22;1661;53.572;10.174;2023-05-07T02:07:12;10.10;85.30
3298;DHT22;1661;53.572;10.174;2023-05-07T02:09:41;10.10;85.60
3298;DHT22;1661;53.572;10.174;2023-05-07T02:12:12;10.10;85.80
3298;DHT22;1661;53.572;10.174;2023-05-07T02:14:38;10.10;85.60
3298;DHT22;1661;53.572;10.174;2023-05-07T02:17:05;10.20;85.40
3298;DHT22;1661;53.572;10.174;2023-05-07T02:19:32;10.30;85.30
3298;DHT22;1661;53.572;10.174;2023-05-07T02:21:59;10.20;85.40
3298;DHT22;1661;53.572;10.174;2023-05-07T02:24:29;10.20;85.60
3298;DHT22;1661;53.572;10.174;2023-05-07T02:26:55;10.00;86.10
3298;DHT22;1661;53.572;10.174;2023-05-07T02:29:24;10.00;86.20
3298;DHT22;1661;53.572;10.174;2023-05-07T02:31:50;10.00;86.30
3298;DHT22;1661;53.572;10.174;2023-05-07T02:34:18;10.00;86.00
3298;DHT22;1661;53.572;10.174;2023-05-07T02:36:45;9.90;86.40
3298;DHT22;1661;53.572;10.174;2023-05-07T02:39:12;10.00;86.60
3298;DHT22;1661;53.572;10.174;2023-05-07T02:41:42;10.10;86.00
3298;DHT22;1661;53.572;10.174;2023-05-07T02:44:08;10.10;86.00
3298;DHT22;1661;53.572;10.174;2023-05-07T02:46:39;10.10;85.90
3298;DHT22;1661;53.572;10.174;2023-05-07T02:49:06;10.00;85.80
3298;DHT22;1661;53.572;10.174;2023-05-07T02:51:33;10.10;85.80
3298;DHT22;1661;53.572;10.174;2023-05-07T02:54:00;10.00;85.80
3298;DHT22;1661;53.572;10.174;2023-05-07T02:56:30;10.00;85.60
3298;DHT22;1661;53.572;10.174;2023-05-07T02:58:56;9.90;86.00
3298;DHT22;1661;53.572;10.174;2023-05-07T03:01:23;9.90;85.70
3298;DHT22;1661;53.572;10.174;2023-05-07T03:03:52;9.90;85.30
3298;DHT22;1661;53.572;10.174;2023-05-07T03:06:18;9.90;85.20
3298;DHT22;1661;53.572;10.174;2023-05-07T03:08:47;9.90;85.20
3298;DHT22;1661;53.572;10.174;2023-05-07T03:11:16;9.90;85.30
3298;DHT22;1661;53.572;10.174;2023-05-07T03:13:43;9.90;85.50
3298;DHT22;1661;53.572;10.174;2023-05-07T03:16:10;9.90;85.60
3298;DHT22;1661;53.572;10.174;2023-05-07T03:18:37;9.80;85.40
3298;DHT22;1661;53.572;10.174;2023-05-07T03:21:05;9.80;85.40
3298;DHT22;1661;53.572;10.174;2023-05-07T03:23:41;9.80;85.00
3298;DHT22;1661;53.572;10.174;2023-05-07T03:26:07;9.80;85.20
3298;DHT22;1661;53.572;10.174;2023-05-07T03:28:34;9.80;85.00
3298;DHT22;1661;53.572;10.174;2023-05-07T03:31:10;9.80;84.80
3298;DHT22;1661;53.572;10.174;2023-05-07T03:33:50;9.80;85.20
3298;DHT22;1661;53.572;10.174;2023-05-07T03:36:19;9.80;85.30
3298;DHT22;1661;53.572;10.174;2023-05-07T03:38:47;9.90;85.10
3298;DHT22;1661;53.572;10.174;2023-05-07T03:41:14;10.00;84.70
3298;DHT22;1661;53.572;10.174;2023-05-07T03:43:41;10.00;84.30
3298;DHT22;1661;53.572;10.174;2023-05-07T03:46:09;10.00;84.50
3298;DHT22;1661;53.572;10.174;2023-05-07T03:48:36;10.00;84.30
3298;DHT22;1661;53.572;10.174;2023-05-07T03:51:02;10.00;84.60
3298;DHT22;1661;53.572;10.174;2023-05-07T03:53:31;10.10;84.40
3298;DHT22;1661;53.572;10.174;2023-05-07T03:55:57;10.10;84.20
3298;DHT22;1661;53.572;10.174;2023-05-07T03:58:27;10.10;83.90
3298;DHT22;1661;53.572;10.174;2023-05-07T04:00:56;10.00;83.70
3298;DHT22;1661;53.572;10.174;2023-05-07T04:03:24;9.90;83.90
3298;DHT22;1661;53.572;10.174;2023-05-07T04:05:50;9.90;84.20
3298;DHT22;1661;53.572;10.174;2023-05-07T04:08:17;9.90;84.20
3298;DHT22;1661;53.572;10.174;2023-05-07T04:10:45;10.00;83.90
3298;DHT22;1661;53.572;10.174;2023-05-07T04:13:12;10.00;84.10
3298;DHT22;1661;53.572;10.174;2023-05-07T04:15:39;10.00;84.30
3298;DHT22;1661;53.572;10.174;2023-05-07T04:18:06;10.00;84.30
3298;DHT22;1661;53.572;10.174;2023-05-07T04:20:34;10.00;84.20
3298;DHT22;1661;53.572;10.174;2023-05-07T04:23:01;10.10;84.10
3298;DHT22;1661;53.572;10.174;2023-05-07T04:25:28;10.10;83.80
3298;DHT22;1661;53.572;10.174;2023-05-07T04:27:57;10.30;84.00
3298;DHT22;1661;53.572;10.174;2023-05-07T04:30:24;10.30;83.60
3298;DHT22;1661;53.572;10.174;2023-05-07T04:32:51;10.30;83.50
3298;DHT22;1661;53.572;10.174;2023-05-07T04:35:19;10.30;83.50
3298;DHT22;1661;53.572;10.174;2023-05-07T04:37:45;10.20;84.00
3298;DHT22;1661;53.572;10.174;2023-05-07T04:40:12;10.20;84.20
3298;DHT22;1661;53.572;10.174;2023-05-07T04:42:39;10.20;84.10
3298;DHT22;1661;53.572;10.174;2023-05-07T04:45:11;10.30;83.70
3298;DHT22;1661;53.572;10.174;2023-05-07T04:47:40;10.30;83.50
3298;DHT22;1661;53.572;10.174;2023-05-07T04:50:08;10.20;83.40
3298;DHT22;1661;53.572;10.174;2023-05-07T04:52:35;10.20;83.50
3298;DHT22;1661;53.572;10.174;2023-05-07T04:55:04;10.20;83.60
3298;DHT22;1661;53.572;10.174;2023-05-07T04:57:31;10.10;83.50
3298;DHT22;1661;53.572;10.174;2023-05-07T04:59:58;10.20;83.50
3298;DHT22;1661;53.572;10.174;2023-05-07T05:02:26;10.20;83.10
3298;DHT22;1661;53.572;10.174;2023-05-07T05:04:53;10.30;83.10
3298;DHT22;1661;53.572;10.174;2023-05-07T05:07:19;10.20;83.10
3298;DHT22;1661;53.572;10.174;2023-05-07T05:09:46;10.20;83.10
3298;DHT22;1661;53.572;10.174;2023-05-07T05:12:13;10.20;83.10
3298;DHT22;1661;53.572;10.174;2023-05-07T05:14:40;10.20;83.20
3298;DHT22;1661;53.572;10.174;2023-05-07T05:17:06;10.20;83.00
3298;DHT22;1661;53.572;10.174;2023-05-07T05:19:34;10.20;83.10
3298;DHT22;1661;53.572;10.174;2023-05-07T05:22:01;10.10;83.10
3298;DHT22;1661;53.572;10.174;2023-05-07T05:24:29;10.10;83.30
3298;DHT22;1661;53.572;10.174;2023-05-07T05:26:56;10.20;83.50
3298;DHT22;1661;53.572;10.174;2023-05-07T05:29:23;10.20;83.40
3298;DHT22;1661;53.572;10.174;2023-05-07T05:31:50;10.30;83.10
3298;DHT22;1661;53.572;10.174;2023-05-07T05:34:17;10.30;82.90
3298;DHT22;1661;53.572;10.174;2023-05-07T05:36:46;10.30;82.90
3298;DHT22;1661;53.572;10.174;2023-05-07T05:39:13;10.30;83.00
3298;DHT22;1661;53.572;10.174;2023-05-07T05:41:40;10.40;82.80
3298;DHT22;1661;53.572;10.174;2023-05-07T05:44:06;10.40;82.70
3298;DHT22;1661;53.572;10.174;2023-05-07T05:46:33;10.50;82.50
3298;DHT22;1661;53.572;10.174;2023-05-07T05:49:01;10.50;82.30
3298;DHT22;1661;53.572;10.174;2023-05-07T05:51:28;10.50;82.10
3298;DHT22;1661;53.572;10.174;2023-05-07T05:53:56;10.50;81.80
3298;DHT22;1661;53.572;10.174;2023-05-07T05:56:22;10.50;81.60
3298;DHT22;1661;53.572;10.174;2023-05-07T05:58:50;10.50;81.80
3298;DHT22;1661;53.572;10.174;2023-05-07T06:01:17;10.60;81.80
3298;DHT22;1661;53.572;10.174;2023-05-07T06:03:44;10.60;82.00
3298;DHT22;1661;53.572;10.174;2023-05-07T06:06:11;10.70;81.80
3298;DHT22;1661;53.572;10.174;2023-05-07T06:08:38;10.70;81.70
3298;DHT22;1661;53.572;10.174;2023-05-07T06:11:11;10.80;81.50
3298;DHT22;1661;53.572;10.174;2023-05-07T06:13:38;10.80;81.50
3298;DHT22;1661;53.572;10.174;2023-05-07T06:16:06;10.90;81.10
3298;DHT22;1661;53.572;10.174;2023-05-07T06:18:35;10.90;80.90
3298;DHT22;1661;53.572;10.174;2023-05-07T06:21:02;10.90;80.80
3298;DHT22;1661;53.572;10.174;2023-05-07T06:23:29;10.90;80.80
3298;DHT22;1661;53.572;10.174;2023-05-07T06:25:56;10.80;80.80
3298;DHT22;1661;53.572;10.174;2023-05-07T06:28:24;10.90;80.70
3298;DHT22;1661;53.572;10.174;2023-05-07T06:30:51;10.90;80.70
3298;DHT22;1661;53.572;10.174;2023-05-07T06:33:21;10.90;80.80
3298;DHT22;1661;53.572;10.174;2023-05-07T06:35:50;10.90;80.80
3298;DHT22;1661;53.572;10.174;2023-05-07T06:38:17;10.70;81.00
3298;DHT22;1661;53.572;10.174;2023-05-07T06:40:44;10.70;81.20
3298;DHT22;1661;53.572;10.174;2023-05-07T06:43:14;10.70;81.10
3298;DHT22;1661;53.572;10.174;2023-05-07T06:45:42;10.70;81.00
3298;DHT22;1661;53.572;10.174;2023-05-07T06:48:11;10.80;81.00
3298;DHT22;1661;53.572;10.174;2023-05-07T06:50:38;10.80;80.70
3298;DHT22;1661;53.572;10.174;2023-05-07T06:53:05;10.70;81.00
3298;DHT22;1661;53.572;10.174;2023-05-07T06:55:32;10.70;80.80
3298;DHT22;1661;53.572;10.174;2023-05-07T06:57:58;10.70;81.00
3298;DHT22;1661;53.572;10.174;2023-05-07T07:00:26;10.70;81.20
3298;DHT22;1661;53.572;10.174;2023-05-07T07:02:55;10.70;81.20
3298;DHT22;1661;53.572;10.174;2023-05-07T07:05:22;10.80;80.80
3298;DHT22;1661;53.572;10.174;2023-05-07T07:07:48;10.90;80.50
3298;DHT22;1661;53.572;10.174;2023-05-07T07:10:18;10.90;80.70
3298;DHT22;1661;53.572;10.174;2023-05-07T07:12:45;10.90;80.60
3298;DHT22;1661;53.572;10.174;2023-05-07T07:15:11;10.90;80.20
3298;DHT22;1661;53.572;10.174;2023-05-07T07:17:38;10.90;80.30
3298;DHT22;1661;53.572;10.174;2023-05-07T07:20:08;10.90;80.10
3298;DHT22;1661;53.572;10.174;2023-05-07T07:22:34;10.90;80.00
3298;DHT22;1661;53.572;10.174;2023-05-07T07:25:04;10.90;80.10
3298;DHT22;1661;53.572;10.174;2023-05-07T07:27:31;11.00;80.10
3298;DHT22;1661;53.572;10.174;2023-05-07T07:29:58;11.00;80.00
3298;DHT22;1661;53.572;10.174;2023-05-07T07:32:27;11.10;79.90
3298;DHT22;1661;53.572;10.174;2023-05-07T07:34:54;11.10;79.70
3298;DHT22;1661;53.572;10.174;2023-05-07T07:37:22;11.20;79.30
3298;DHT22;1661;53.572;10.174;2023-05-07T07:39:54;11.20;79.70
3298;DHT22;1661;53.572;10.174;2023-05-07T07:42:21;11.20;79.50
3298;DHT22;1661;53.572;10.174;2023-05-07T07:44:48;11.20;79.60
3298;DHT22;1661;53.572;10.174;2023-05-07T07:47:15;11.20;79.50
3298;DHT22;1661;53.572;10.174;2023-05-07T07:49:44;11.20;79.50
3298;DHT22;1661;53.572;10.174;2023-05-07T07:52:11;11.30;79.50
3298;DHT22;1661;53.572;10.174;2023-05-07T07:54:39;11.40;79.10
3298;DHT22;1661;53.572;10.174;2023-05-07T07:57:09;11.40;78.90
3298;DHT22;1661;53.572;10.174;2023-05-07T07:59:35;11.40;78.70
3298;DHT22;1661;53.572;10.174;2023-05-07T08:02:05;11.50;78.50
3298;DHT22;1661;53.572;10.174;2023-05-07T08:04:32;11.50;78.40
3298;DHT22;1661;53.572;10.174;2023-05-07T08:06:59;11.40;78.00
3298;DHT22;1661;53.572;10.174;2023-05-07T08:09:26;11.40;78.30
3298;DHT22;1661;53.572;10.174;2023-05-07T08:11:54;11.30;78.50
3298;DHT22;1661;53.572;10.174;2023-05-07T08:14:21;11.40;78.30
3298;DHT22;1661;53.572;10.174;2023-05-07T08:16:47;11.40;78.50
3298;DHT22;1661;53.572;10.174;2023-05-07T08:19:14;11.40;78.30
3298;DHT22;1661;53.572;10.174;2023-05-07T08:21:41;11.50;78.40
3298;DHT22;1661;53.572;10.174;2023-05-07T08:24:08;11.50;77.80
3298;DHT22;1661;53.572;10.174;2023-05-07T08:26:34;11.50;77.90
3298;DHT22;1661;53.572;10.174;2023-05-07T08:29:06;11.50;77.60
3298;DHT22;1661;53.572;10.174;2023-05-07T08:31:32;11.50;77.90
3298;DHT22;1661;53.572;10.174;2023-05-07T08:34:00;11.50;78.00
3298;DHT22;1661;53.572;10.174;2023-05-07T08:36:27;11.50;77.70
3298;DHT22;1661;53.572;10.174;2023-05-07T08:38:54;11.60;77.50
3298;DHT22;1661;53.572;10.174;2023-05-07T08:41:20;11.70;77.30
3298;DHT22;1661;53.572;10.174;2023-05-07T08:43:51;11.80;77.20
3298;DHT22;1661;53.572;10.174;2023-05-07T08:46:21;11.80;77.30
3298;DHT22;1661;53.572;10.174;2023-05-07T08:48:48;11.90;77.00
3298;DHT22;1661;53.572;10.174;2023-05-07T08:51:17;12.00;77.10
3298;DHT22;1661;53.572;10.174;2023-05-07T08:53:45;12.10;76.70
3298;DHT22;1661;53.572;10.174;2023-05-07T08:56:14;12.20;76.10
3298;DHT22;1661;53.572;10.174;2023-05-07T08:58:42;12.30;76.10
3298;DHT22;1661;53.572;10.174;2023-05-07T09:01:10;12.30;75.50
3298;DHT22;1661;53.572;10.174;2023-05-07T09:03:41;12.30;75.30
3298;DHT22;1661;53.572;10.174;2023-05-07T09:06:08;12.40;75.00
3298;DHT22;1661;53.572;10.174;2023-05-07T09:08:35;12.40;75.20
3298;DHT22;1661;53.572;10.174;2023-05-07T09:11:02;12.40;74.90
3298;DHT22;1661;53.572;10.174;2023-05-07T09:13:30;12.50;75.00
3298;DHT22;1661;53.572;10.174;2023-05-07T09:15:56;12.50;74.80
3298;DHT22;1661;53.572;10.174;2023-05-07T09:18:24;12.50;74.70
3298;DHT22;1661;53.572;10.174;2023-05-07T09:20:53;12.50;74.70
3298;DHT22;1661;53.572;10.174;2023-05-07T09:23:21;12.50;74.50
3298;DHT22;1661;53.572;10.174;2023-05-07T09:25:48;12.60;74.80
3298;DHT22;1661;53.572;10.174;2023-05-07T09:28:14;12.60;74.70
3298;DHT22;1661;53.572;10.174;2023-05-07T09:30:41;12.70;74.60
3298;DHT22;1661;53.572;10.174;2023-05-07T09:33:08;12.70;73.70
3298;DHT22;1661;53.572;10.174;2023-05-07T09:35:35;12.70;73.30
3298;DHT22;1661;53.572;10.174;2023-05-07T09:38:05;12.70;73.00
3298;DHT22;1661;53.572;10.174;2023-05-07T09:40:32;12.70;73.10
3298;DHT22;1661;53.572;10.174;2023-05-07T09:43:09;12.70;73.80
3298;DHT22;1661;53.572;10.174;2023-05-07T09:45:36;12.90;73.60
3298;DHT22;1661;53.572;10.174;2023-05-07T09:48:06;12.90;72.90
3298;DHT22;1661;53.572;10.174;2023-05-07T09:50:36;13.00;73.30
3298;DHT22;1661;53.572;10.174;2023-05-07T09:53:11;13.00;72.70
3298;DHT22;1661;53.572;10.174;2023-05-07T09:55:40;13.10;73.00
3298;DHT22;1661;53.572;10.174;2023-05-07T09:58:07;13.20;72.60
3298;DHT22;1661;53.572;10.174;2023-05-07T10:00:36;13.20;72.30
3298;DHT22;1661;53.572;10.174;2023-05-07T10:03:04;13.20;72.10
3298;DHT22;1661;53.572;10.174;2023-05-07T10:05:32;13.20;71.70
3298;DHT22;1661;53.572;10.174;2023-05-07T10:07:59;13.30;71.90
3298;DHT22;1661;53.572;10.174;2023-05-07T10:10:29;13.40;71.60
3298;DHT22;1661;53.572;10.174;2023-05-07T10:12:57;13.40;71.50
3298;DHT22;1661;53.572;10.174;2023-05-07T10:15:28;13.50;71.20
3298;DHT22;1661;53.572;10.174;2023-05-07T10:17:55;13.50;71.50
3298;DHT22;1661;53.572;10.174;2023-05-07T10:20:23;13.50;71.90
3298;DHT22;1661;53.572;10.174;2023-05-07T10:22:51;13.60;71.60
3298;DHT22;1661;53.572;10.174;2023-05-07T10:25:21;13.80;70.90
3298;DHT22;1661;53.572;10.174;2023-05-07T10:27:51;13.80;71.00
3298;DHT22;1661;53.572;10.174;2023-05-07T10:30:30;14.00;70.40
3298;DHT22;1661;53.572;10.174;2023-05-07T10:33:03;14.10;70.30
3298;DHT22;1661;53.572;10.174;2023-05-07T10:35:36;14.10;70.30
3298;DHT22;1661;53.572;10.174;2023-05-07T10:38:04;14.10;69.60
3298;DHT22;1661;53.572;10.174;2023-05-07T10:40:31;14.20;69.50
3298;DHT22;1661;53.572;10.174;2023-05-07T10:43:03;14.20;69.40
3298;DHT22;1661;53.572;10.174;2023-05-07T10:45:31;14.20;69.10
3298;DHT22;1661;53.572;10.174;2023-05-07T10:48:08;14.40;69.50
3298;DHT22;1661;53.572;10.174;2023-05-07T10:50:39;14.50;68.70
3298;DHT22;1661;53.572;10.174;2023-05-07T10:53:25;14.40;68.60
3298;DHT22;1661;53.572;10.174;2023-05-07T10:58:51;14.40;68.90
3298;DHT22;1661;53.572;10.174;2023-05-07T11:01:52;14.40;69.30
3298;DHT22;1661;53.572;10.174;2023-05-07T11:04:20;14.40;69.10
3298;DHT22;1661;53.572;10.174;2023-05-07T11:07:25;14.50;68.90
3298;DHT22;1661;53.572;10.174;2023-05-07T11:10:05;14.50;68.70
3298;DHT22;1661;53.572;10.174;2023-05-07T11:12:52;14.50;68.70
3298;DHT22;1661;53.572;10.174;2023-05-07T11:15:40;14.50;68.10
3298;DHT22;1661;53.572;10.174;2023-05-07T11:18:09;14.50;68.80
3298;DHT22;1661;53.572;10.174;2023-05-07T11:20:57;14.60;68.50
3298;DHT22;1661;53.572;10.174;2023-05-07T11:23:55;14.60;68.10
3298;DHT22;1661;53.572;10.174;2023-05-07T11:26:23;14.50;68.30
3298;DHT22;1661;53.572;10.174;2023-05-07T11:28:51;14.60;68.50
3298;DHT22;1661;53.572;10.174;2023-05-07T11:31:22;14.80;68.00
3298;DHT22;1661;53.572;10.174;2023-05-07T11:33:50;14.80;68.20
3298;DHT22;1661;53.572;10.174;2023-05-07T11:36:18;15.10;67.90
3298;DHT22;1661;53.572;10.174;2023-05-07T11:38:47;15.20;67.00
3298;DHT22;1661;53.572;10.174;2023-05-07T11:41:16;15.30;67.10
3298;DHT22;1661;53.572;10.174;2023-05-07T11:43:55;15.50;67.00
3298;DHT22;1661;53.572;10.174;2023-05-07T11:46:24;15.60;66.10
3298;DHT22;1661;53.572;10.174;2023-05-07T11:48:53;15.70;66.20
3298;DHT22;1661;53.572;10.174;2023-05-07T11:51:20;15.90;65.60
3298;DHT22;1661;53.572;10.174;2023-05-07T11:53:47;16.20;65.70
3298;DHT22;1661;53.572;10.174;2023-05-07T11:56:16;16.30;64.30
3298;DHT22;1661;53.572;10.174;2023-05-07T11:58:44;16.50;64.30
3298;DHT22;1661;53.572;10.174;2023-05-07T12:01:12;16.70;64.50
3298;DHT22;1661;53.572;10.174;2023-05-07T12:03:42;17.00;63.50
3298;DHT22;1661;53.572;10.174;2023-05-07T12:06:10;17.00;62.80
3298;DHT22;1661;53.572;10.174;2023-05-07T12:08:38;16.90;62.20
3298;DHT22;1661;53.572;10.174;2023-05-07T12:11:07;17.00;62.40
3298;DHT22;1661;53.572;10.174;2023-05-07T12:13:36;17.10;61.60
3298;DHT22;1661;53.572;10.174;2023-05-07T12:16:05;17.10;61.30
3298;DHT22;1661;53.572;10.174;2023-05-07T12:18:34;17.00;61.20
3298;DHT22;1661;53.572;10.174;2023-05-07T12:21:03;17.10;61.60
3298;DHT22;1661;53.572;10.174;2023-05-07T12:23:30;17.10;61.90
3298;DHT22;1661;53.572;10.174;2023-05-07T12:25:57;17.10;60.50
3298;DHT22;1661;53.572;10.174;2023-05-07T12:28:28;17.10;61.90
3298;DHT22;1661;53.572;10.174;2023-05-07T12:30:57;17.10;61.20
3298;DHT22;1661;53.572;10.174;2023-05-07T12:33:25;17.20;61.10
3298;DHT22;1661;53.572;10.174;2023-05-07T12:35:54;17.20;61.20
3298;DHT22;1661;53.572;10.174;2023-05-07T12:38:23;17.20;60.80
3298;DHT22;1661;53.572;10.174;2023-05-07T12:40:53;17.20;61.20
3298;DHT22;1661;53.572;10.174;2023-05-07T12:43:21;17.30;60.90
3298;DHT22;1661;53.572;10.174;2023-05-07T12:45:49;17.30;61.00
3298;DHT22;1661;53.572;10.174;2023-05-07T12:48:17;17.30;61.00
3298;DHT22;1661;53.572;10.174;2023-05-07T12:50:43;17.30;60.40
3298;DHT22;1661;53.572;10.174;2023-05-07T12:53:11;17.30;60.90
3298;DHT22;1661;53.572;10.174;2023-05-07T12:55:44;17.20;60.20
3298;DHT22;1661;53.572;10.174;2023-05-07T12:58:17;17.20;60.40
3298;DHT22;1661;53.572;10.174;2023-05-07T13:00:46;17.00;60.50
3298;DHT22;1661;53.572;10.174;2023-05-07T13:03:21;17.00;60.90
3298;DHT22;1661;53.572;10.174;2023-05-07T13:05:49;17.10;61.20
3298;DHT22;1661;53.572;10.174;2023-05-07T13:08:26;17.20;60.40
3298;DHT22;1661;53.572;10.174;2023-05-07T13:10:58;17.30;60.80
3298;DHT22;1661;53.572;10.174;2023-05-07T13:13:25;17.30;60.60
3298;DHT22;1661;53.572;10.174;2023-05-07T13:15:52;17.30;60.60
3298;DHT22;1661;53.572;10.174;2023-05-07T13:18:19;17.50;59.50
3298;DHT22;1661;53.572;10.174;2023-05-07T13:20:45;17.50;59.90
3298;DHT22;1661;53.572;10.174;2023-05-07T13:23:12;17.60;60.30
3298;DHT22;1661;53.572;10.174;2023-05-07T13:25:39;17.80;60.30
3298;DHT22;1661;53.572;10.174;2023-05-07T13:28:10;17.90;59.30
3298;DHT22;1661;53.572;10.174;2023-05-07T13:30:37;18.00;60.30
3298;DHT22;1661;53.572;10.174;2023-05-07T13:33:04;18.10;59.00
3298;DHT22;1661;53.572;10.174;2023-05-07T13:35:31;18.10;58.80
3298;DHT22;1661;53.572;10.174;2023-05-07T13:38:00;18.30;58.50
3298;DHT22;1661;53.572;10.174;2023-05-07T13:40:27;18.40;57.70
3298;DHT22;1661;53.572;10.174;2023-05-07T13:42:56;18.40;57.00
3298;DHT22;1661;53.572;10.174;2023-05-07T13:45:25;18.30;56.70
3298;DHT22;1661;53.572;10.174;2023-05-07T13:47:52;18.30;57.20
3298;DHT22;1661;53.572;10.174;2023-05-07T13:50:21;18.30;57.30
3298;DHT22;1661;53.572;10.174;2023-05-07T13:52:48;18.30;57.50
3298;DHT22;1661;53.572;10.174;2023-05-07T13:55:17;18.50;57.10
3298;DHT22;1661;53.572;10.174;2023-05-07T13:57:44;18.50;56.40
3298;DHT22;1661;53.572;10.174;2023-05-07T14:00:12;18.70;55.40
3298;DHT22;1661;53.572;10.174;2023-05-07T14:02:40;18.80;55.00
3298;DHT22;1661;53.572;10.174;2023-05-07T14:05:07;18.80;55.10
3298;DHT22;1661;53.572;10.174;2023-05-07T14:07:38;19.00;55.50
3298;DHT22;1661;53.572;10.174;2023-05-07T14:10:05;19.10;54.90
3298;DHT22;1661;53.572;10.174;2023-05-07T14:12:32;19.20;54.50
3298;DHT22;1661;53.572;10.174;2023-05-07T14:15:00;19.40;54.20
3298;DHT22;1661;53.572;10.174;2023-05-07T14:17:26;19.40;54.40
3298;DHT22;1661;53.572;10.174;2023-05-07T14:19:57;19.50;53.40
3298;DHT22;1661;53.572;10.174;2023-05-07T14:22:24;19.60;53.70
3298;DHT22;1661;53.572;10.174;2023-05-07T14:24:51;19.60;53.50
3298;DHT22;1661;53.572;10.174;2023-05-07T14:27:18;19.60;53.50
3298;DHT22;1661;53.572;10.174;2023-05-07T14:29:45;19.80;53.60
3298;DHT22;1661;53.572;10.174;2023-05-07T14:32:16;19.90;53.10
3298;DHT22;1661;53.572;10.174;2023-05-07T14:34:43;19.80;52.20
3298;DHT22;1661;53.572;10.174;2023-05-07T14:37:11;19.80;52.40
3298;DHT22;1661;53.572;10.174;2023-05-07T14:39:38;19.80;52.70
3298;DHT22;1661;53.572;10.174;2023-05-07T14:42:08;19.50;52.50
3298;DHT22;1661;53.572;10.174;2023-05-07T14:44:36;19.40;53.70
3298;DHT22;1661;53.572;10.174;2023-05-07T14:47:05;19.20;54.20
3298;DHT22;1661;53.572;10.174;2023-05-07T14:49:33;19.00;54.10
3298;DHT22;1661;53.572;10.174;2023-05-07T14:52:00;18.90;55.20
3298;DHT22;1661;53.572;10.174;2023-05-07T14:54:28;18.90;55.20
3298;DHT22;1661;53.572;10.174;2023-05-07T14:56:55;18.70;55.50
3298;DHT22;1661;53.572;10.174;2023-05-07T14:59:24;18.60;56.10
3298;DHT22;1661;53.572;10.174;2023-05-07T15:01:51;18.60;55.60
3298;DHT22;1661;53.572;10.174;2023-05-07T15:04:18;18.50;57.10
3298;DHT22;1661;53.572;10.174;2023-05-07T15:06:45;18.50;55.00
3298;DHT22;1661;53.572;10.174;2023-05-07T15:09:12;18.40;55.80
3298;DHT22;1661;53.572;10.174;2023-05-07T15:11:42;18.40;55.70
3298;DHT22;1661;53.572;10.174;2023-05-07T15:14:09;18.40;56.20
3298;DHT22;1661;53.572;10.174;2023-05-07T15:16:36;18.40;56.00
3298;DHT22;1661;53.572;10.174;2023-05-07T15:19:02;18.50;56.70
3298;DHT22;1661;53.572;10.174;2023-05-07T15:21:31;18.50;55.70
3298;DHT22;1661;53.572;10.174;2023-05-07T15:24:00;18.40;56.20
3298;DHT22;1661;53.572;10.174;2023-05-07T15:26:27;18.40;56.70
3298;DHT22;1661;53.572;10.174;2023-05-07T15:28:55;18.40;56.30
3298;DHT22;1661;53.572;10.174;2023-05-07T15:31:22;18.50;56.80
3298;DHT22;1661;53.572;10.174;2023-05-07T15:33:50;18.70;56.50
3298;DHT22;1661;53.572;10.174;2023-05-07T15:36:17;18.90;55.30
3298;DHT22;1661;53.572;10.174;2023-05-07T15:38:44;19.10;55.10
3298;DHT22;1661;53.572;10.174;2023-05-07T15:41:10;19.20;55.00
3298;DHT22;1661;53.572;10.174;2023-05-07T15:43:43;19.30;54.10
3298;DHT22;1661;53.572;10.174;2023-05-07T15:46:20;19.40;53.90
3298;DHT22;1661;53.572;10.174;2023-05-07T15:48:49;19.50;53.30
3298;DHT22;1661;53.572;10.174;2023-05-07T15:51:18;19.50;53.80
3298;DHT22;1661;53.572;10.174;2023-05-07T15:53:50;19.40;53.70
3298;DHT22;1661;53.572;10.174;2023-05-07T15:56:19;19.10;54.10
3298;DHT22;1661;53.572;10.174;2023-05-07T15:58:46;18.90;55.30